sensor_id;sensor_type;location;lat;lon;timestamp;temperature;humidity
16040;DHT22;8124;48.634;8.120;2022-07-29T00:04:40;25.80;97.80
16040;DHT22;8124;48.634;8.120;2022-07-29T00:09:43;25.90;97.80
16040;DHT22;8124;48.634;8.120;2022-07-29T00:14:53;25.80;98.50
16040;DHT22;8124;48.634;8.120;2022-07-29T00:19:58;25.70;99.60
16040;DHT22;8124;48.634;8.120;2022-07-29T00:25:01;25.20;99.90
16040;DHT22;8124;48.634;8.120;2022-07-29T00:30:05;25.10;99.90
16040;DHT22;8124;48.634;8.120;2022-07-29T00:35:10;24.90;99.90
16040;DHT22;8124;48.634;8.120;2022-07-29T00:40:31;24.20;99.90
16040;DHT22;8124;48.634;8.120;2022-07-29T00:45:34;24.70;99.90
16040;DHT22;8124;48.634;8.120;2022-07-29T00:50:38;24.70;99.90
16040;DHT22;8124;48.634;8.120;2022-07-29T00:55:41;24.90;99.90
16040;DHT22;8124;48.634;8.120;2022-07-29T01:00:44;24.80;99.90
16040;DHT22;8124;48.634;8.120;2022-07-29T01:05:49;24.90;99.90
16040;DHT22;8124;48.634;8.120;2022-07-29T01:10:53;24.70;99.90
16040;DHT22;8124;48.634;8.120;2022-07-29T01:16:00;24.80;99.90
16040;DHT22;8124;48.634;8.120;2022-07-29T01:21:40;24.60;99.90
16040;DHT22;8124;48.634;8.120;2022-07-29T01:26:49;24.70;99.90
16040;DHT22;8124;48.634;8.120;2022-07-29T01:32:01;24.80;99.90
16040;DHT22;8124;48.634;8.120;2022-07-29T01:37:18;24.90;99.90
16040;DHT22;8124;48.634;8.120;2022-07-29T01:42:27;24.50;99.90
16040;DHT22;8124;48.634;8.120;2022-07-29T01:47:39;24.60;99.90
16040;DHT22;8124;48.634;8.120;2022-07-29T01:52:46;24.40;99.90
16040;DHT22;8124;48.634;8.120;2022-07-29T01:57:52;24.20;99.90
16040;DHT22;8124;48.634;8.120;2022-07-29T02:02:59;23.80;99.90
16040;DHT22;8124;48.634;8.120;2022-07-29T02:08:04;23.40;99.90
16040;DHT22;8124;48.634;8.120;2022-07-29T02:13:09;23.60;99.90
16040;DHT22;8124;48.634;8.120;2022-07-29T02:18:17;23.80;99.90
16040;DHT22;8124;48.634;8.120;2022-07-29T02:23:23;24.00;99.90
16040;DHT22;8124;48.634;8.120;2022-07-29T02:28:28;23.90;99.90
16040;DHT22;8124;48.634;8.120;2022-07-29T02:33:34;23.80;99.90
16040;DHT22;8124;48.634;8.120;2022-07-29T02:38:38;23.80;99.90
16040;DHT22;8124;48.634;8.120;2022-07-29T02:43:55;23.60;99.90
16040;DHT22;8124;48.634;8.120;2022-07-29T02:49:08;23.60;99.90
16040;DHT22;8124;48.634;8.120;2022-07-29T02:54:22;23.50;99.90
16040;DHT22;8124;48.634;8.120;2022-07-29T02:59:27;23.60;99.90
16040;DHT22;8124;48.634;8.120;2022-07-29T03:04:35;23.20;99.90
16040;DHT22;8124;48.634;8.120;2022-07-29T03:09:41;23.40;99.90
16040;DHT22;8124;48.634;8.120;2022-07-29T03:14:45;23.40;99.90
16040;DHT22;8124;48.634;8.120;2022-07-29T03:19:50;23.20;99.90
16040;DHT22;8124;48.634;8.120;2022-07-29T03:24:53;23.00;99.90
16040;DHT22;8124;48.634;8.120;2022-07-29T03:29:56;22.90;99.90
16040;DHT22;8124;48.634;8.120;2022-07-29T03:35:01;22.70;99.90
16040;DHT22;8124;48.634;8.120;2022-07-29T03:40:08;22.90;99.90
16040;DHT22;8124;48.634;8.120;2022-07-29T03:45:17;23.00;99.90
16040;DHT22;8124;48.634;8.120;2022-07-29T03:50:22;23.00;99.90
16040;DHT22;8124;48.634;8.120;2022-07-29T03:55:25;22.80;99.90
16040;DHT22;8124;48.634;8.120;2022-07-29T04:00:30;23.00;99.90
16040;DHT22;8124;48.634;8.120;2022-07-29T04:05:35;22.90;99.90
16040;DHT22;8124;48.634;8.120;2022-07-29T04:10:38;22.90;99.90
16040;DHT22;8124;48.634;8.120;2022-07-29T04:15:41;22.90;99.90
16040;DHT22;8124;48.634;8.120;2022-07-29T04:20:45;22.60;99.90
16040;DHT22;8124;48.634;8.120;2022-07-29T04:25:48;22.40;99.90
16040;DHT22;8124;48.634;8.120;2022-07-29T04:30:51;22.30;99.90
16040;DHT22;8124;48.634;8.120;2022-07-29T04:35:56;22.40;99.90
16040;DHT22;8124;48.634;8.120;2022-07-29T04:40:59;21.90;99.90
16040;DHT22;8124;48.634;8.120;2022-07-29T04:46:03;21.30;99.90
16040;DHT22;8124;48.634;8.120;2022-07-29T04:51:10;21.70;99.90
16040;DHT22;8124;48.634;8.120;2022-07-29T04:56:13;22.00;99.90
16040;DHT22;8124;48.634;8.120;2022-07-29T05:01:16;22.30;99.90
16040;DHT22;8124;48.634;8.120;2022-07-29T05:06:20;22.60;99.90
16040;DHT22;8124;48.634;8.120;2022-07-29T05:11:23;22.60;99.90
16040;DHT22;8124;48.634;8.120;2022-07-29T05:16:31;22.30;99.90
16040;DHT22;8124;48.634;8.120;2022-07-29T05:21:36;22.30;99.90
16040;DHT22;8124;48.634;8.120;2022-07-29T05:26:39;22.20;99.90
16040;DHT22;8124;48.634;8.120;2022-07-29T05:31:42;21.90;99.90
16040;DHT22;8124;48.634;8.120;2022-07-29T05:36:46;22.20;99.90
16040;DHT22;8124;48.634;8.120;2022-07-29T05:41:49;22.40;99.90
16040;DHT22;8124;48.634;8.120;2022-07-29T05:46:52;22.60;99.90
16040;DHT22;8124;48.634;8.120;2022-07-29T05:51:57;22.80;99.90
16040;DHT22;8124;48.634;8.120;2022-07-29T05:57:00;23.00;99.90
16040;DHT22;8124;48.634;8.120;2022-07-29T06:02:03;23.20;99.90
16040;DHT22;8124;48.634;8.120;2022-07-29T06:07:08;23.30;99.90
16040;DHT22;8124;48.634;8.120;2022-07-29T06:12:12;23.50;99.90
16040;DHT22;8124;48.634;8.120;2022-07-29T06:17:16;23.50;99.90
16040;DHT22;8124;48.634;8.120;2022-07-29T06:22:21;23.60;99.90
16040;DHT22;8124;48.634;8.120;2022-07-29T06:27:24;23.70;99.90
16040;DHT22;8124;48.634;8.120;2022-07-29T06:32:27;23.80;99.90
16040;DHT22;8124;48.634;8.120;2022-07-29T06:37:31;24.10;99.90
16040;DHT22;8124;48.634;8.120;2022-07-29T06:42:35;24.20;99.90
16040;DHT22;8124;48.634;8.120;2022-07-29T06:47:38;24.10;99.90
16040;DHT22;8124;48.634;8.120;2022-07-29T06:52:42;24.20;99.90
16040;DHT22;8124;48.634;8.120;2022-07-29T06:57:45;24.20;99.90
16040;DHT22;8124;48.634;8.120;2022-07-29T07:02:52;24.30;99.90
16040;DHT22;8124;48.634;8.120;2022-07-29T07:07:56;24.40;99.90
16040;DHT22;8124;48.634;8.120;2022-07-29T07:12:59;24.40;99.90
16040;DHT22;8124;48.634;8.120;2022-07-29T07:18:03;24.40;99.90
16040;DHT22;8124;48.634;8.120;2022-07-29T07:23:07;24.50;99.90
16040;DHT22;8124;48.634;8.120;2022-07-29T07:28:10;24.50;99.90
16040;DHT22;8124;48.634;8.120;2022-07-29T07:33:13;24.50;99.90
16040;DHT22;8124;48.634;8.120;2022-07-29T07:38:18;24.80;99.90
16040;DHT22;8124;48.634;8.120;2022-07-29T07:43:21;25.00;99.90
16040;DHT22;8124;48.634;8.120;2022-07-29T07:48:24;25.40;99.90
16040;DHT22;8124;48.634;8.120;2022-07-29T07:53:29;25.60;99.90
16040;DHT22;8124;48.634;8.120;2022-07-29T07:58:33;25.60;99.90
16040;DHT22;8124;48.634;8.120;2022-07-29T08:03:37;25.80;99.90
16040;DHT22;8124;48.634;8.120;2022-07-29T08:08:42;25.70;99.90
16040;DHT22;8124;48.634;8.120;2022-07-29T08:13:45;25.80;99.90
16040;DHT22;8124;48.634;8.120;2022-07-29T08:18:49;26.20;99.90
16040;DHT22;8124;48.634;8.120;2022-07-29T08:23:54;26.30;99.90
16040;DHT22;8124;48.634;8.120;2022-07-29T08:29:17;26.40;99.90
16040;DHT22;8124;48.634;8.120;2022-07-29T08:34:20;26.60;99.90
16040;DHT22;8124;48.634;8.120;2022-07-29T08:39:30;26.60;99.90
16040;DHT22;8124;48.634;8.120;2022-07-29T08:44:33;27.00;99.90
16040;DHT22;8124;48.634;8.120;2022-07-29T08:49:37;27.20;99.90
16040;DHT22;8124;48.634;8.120;2022-07-29T08:54:48;27.10;99.90
16040;DHT22;8124;48.634;8.120;2022-07-29T08:59:52;27.40;99.90
16040;DHT22;8124;48.634;8.120;2022-07-29T09:04:57;27.50;99.90
16040;DHT22;8124;48.634;8.120;2022-07-29T09:10:06;27.60;99.90
16040;DHT22;8124;48.634;8.120;2022-07-29T09:15:09;28.00;99.90
16040;DHT22;8124;48.634;8.120;2022-07-29T09:20:21;28.40;99.90
16040;DHT22;8124;48.634;8.120;2022-07-29T09:25:36;28.10;99.90
16040;DHT22;8124;48.634;8.120;2022-07-29T09:30:50;27.90;99.90
16040;DHT22;8124;48.634;8.120;2022-07-29T09:36:00;27.60;99.90
16040;DHT22;8124;48.634;8.120;2022-07-29T09:41:08;28.00;99.90
16040;DHT22;8124;48.634;8.120;2022-07-29T09:46:12;28.10;99.90
16040;DHT22;8124;48.634;8.120;2022-07-29T09:51:17;28.00;99.10
16040;DHT22;8124;48.634;8.120;2022-07-29T09:56:39;28.50;99.10
16040;DHT22;8124;48.634;8.120;2022-07-29T10:01:44;28.70;98.70
16040;DHT22;8124;48.634;8.120;2022-07-29T10:06:57;28.80;98.00
16040;DHT22;8124;48.634;8.120;2022-07-29T10:12:08;28.70;96.90
16040;DHT22;8124;48.634;8.120;2022-07-29T10:17:12;28.50;96.20
16040;DHT22;8124;48.634;8.120;2022-07-29T10:22:15;28.50;95.20
16040;DHT22;8124;48.634;8.120;2022-07-29T10:27:40;28.50;94.60
16040;DHT22;8124;48.634;8.120;2022-07-29T10:43:51;28.10;92.10
16040;DHT22;8124;48.634;8.120;2022-07-29T10:49:09;28.20;91.30
16040;DHT22;8124;48.634;8.120;2022-07-29T10:54:16;28.60;90.90
16040;DHT22;8124;48.634;8.120;2022-07-29T10:59:24;28.80;90.40
16040;DHT22;8124;48.634;8.120;2022-07-29T11:04:59;29.20;90.10
16040;DHT22;8124;48.634;8.120;2022-07-29T11:10:24;29.50;89.60
16040;DHT22;8124;48.634;8.120;2022-07-29T11:15:52;29.30;87.70
16040;DHT22;8124;48.634;8.120;2022-07-29T11:20:57;29.40;86.70
16040;DHT22;8124;48.634;8.120;2022-07-29T11:26:20;29.30;85.60
16040;DHT22;8124;48.634;8.120;2022-07-29T11:31:39;29.40;84.80
16040;DHT22;8124;48.634;8.120;2022-07-29T11:37:19;29.40;83.70
16040;DHT22;8124;48.634;8.120;2022-07-29T11:42:39;29.40;83.10
16040;DHT22;8124;48.634;8.120;2022-07-29T11:47:55;29.10;81.80
16040;DHT22;8124;48.634;8.120;2022-07-29T11:53:21;28.90;80.90
16040;DHT22;8124;48.634;8.120;2022-07-29T11:58:24;28.80;80.10
16040;DHT22;8124;48.634;8.120;2022-07-29T12:03:29;28.70;79.60
16040;DHT22;8124;48.634;8.120;2022-07-29T12:08:40;28.80;79.30
16040;DHT22;8124;48.634;8.120;2022-07-29T12:13:45;29.00;79.30
16040;DHT22;8124;48.634;8.120;2022-07-29T12:18:58;29.00;78.80
16040;DHT22;8124;48.634;8.120;2022-07-29T12:24:03;28.70;77.80
16040;DHT22;8124;48.634;8.120;2022-07-29T12:29:15;28.80;77.70
16040;DHT22;8124;48.634;8.120;2022-07-29T12:34:37;28.80;77.60
16040;DHT22;8124;48.634;8.120;2022-07-29T12:39:40;28.70;77.10
16040;DHT22;8124;48.634;8.120;2022-07-29T12:44:44;28.60;76.70
16040;DHT22;8124;48.634;8.120;2022-07-29T12:49:49;28.70;76.70
16040;DHT22;8124;48.634;8.120;2022-07-29T12:54:53;28.90;77.00
16040;DHT22;8124;48.634;8.120;2022-07-29T13:00:08;29.20;77.30
16040;DHT22;8124;48.634;8.120;2022-07-29T13:05:13;29.00;76.50
16040;DHT22;8124;48.634;8.120;2022-07-29T13:10:18;29.00;76.50
16040;DHT22;8124;48.634;8.120;2022-07-29T13:15:25;29.20;76.40
16040;DHT22;8124;48.634;8.120;2022-07-29T13:20:30;29.10;75.90
16040;DHT22;8124;48.634;8.120;2022-07-29T13:25:34;29.40;76.10
16040;DHT22;8124;48.634;8.120;2022-07-29T13:30:42;29.50;76.20
16040;DHT22;8124;48.634;8.120;2022-07-29T13:35:47;29.40;75.70
16040;DHT22;8124;48.634;8.120;2022-07-29T13:40:50;29.30;75.20
16040;DHT22;8124;48.634;8.120;2022-07-29T13:45:53;29.40;75.00
16040;DHT22;8124;48.634;8.120;2022-07-29T13:50:57;29.40;74.70
16040;DHT22;8124;48.634;8.120;2022-07-29T13:56:00;29.50;74.50
16040;DHT22;8124;48.634;8.120;2022-07-29T14:01:03;29.30;73.90
16040;DHT22;8124;48.634;8.120;2022-07-29T14:06:08;29.40;73.90
16040;DHT22;8124;48.634;8.120;2022-07-29T14:11:10;29.70;74.40
16040;DHT22;8124;48.634;8.120;2022-07-29T14:16:13;29.50;74.00
16040;DHT22;8124;48.634;8.120;2022-07-29T14:21:18;29.60;73.90
16040;DHT22;8124;48.634;8.120;2022-07-29T14:26:21;29.50;73.40
16040;DHT22;8124;48.634;8.120;2022-07-29T14:31:25;29.40;73.00
16040;DHT22;8124;48.634;8.120;2022-07-29T14:36:29;29.60;73.10
16040;DHT22;8124;48.634;8.120;2022-07-29T14:41:32;29.60;72.80
16040;DHT22;8124;48.634;8.120;2022-07-29T14:46:35;29.80;72.90
16040;DHT22;8124;48.634;8.120;2022-07-29T14:51:39;29.70;72.30
16040;DHT22;8124;48.634;8.120;2022-07-29T14:56:42;29.70;72.00
16040;DHT22;8124;48.634;8.120;2022-07-29T15:01:48;29.70;72.00
16040;DHT22;8124;48.634;8.120;2022-07-29T15:06:53;29.60;72.00
16040;DHT22;8124;48.634;8.120;2022-07-29T15:11:56;29.70;72.00
16040;DHT22;8124;48.634;8.120;2022-07-29T15:17:00;29.60;71.70
16040;DHT22;8124;48.634;8.120;2022-07-29T15:22:06;29.70;71.50
16040;DHT22;8124;48.634;8.120;2022-07-29T15:27:09;29.80;71.10
16040;DHT22;8124;48.634;8.120;2022-07-29T15:32:15;29.80;70.80
16040;DHT22;8124;48.634;8.120;2022-07-29T15:37:20;29.70;70.30
16040;DHT22;8124;48.634;8.120;2022-07-29T15:42:23;29.80;70.20
16040;DHT22;8124;48.634;8.120;2022-07-29T15:47:26;29.80;70.10
16040;DHT22;8124;48.634;8.120;2022-07-29T15:52:30;29.80;69.90
16040;DHT22;8124;48.634;8.120;2022-07-29T15:57:33;29.90;69.70
16040;DHT22;8124;48.634;8.120;2022-07-29T16:02:36;29.80;69.50
16040;DHT22;8124;48.634;8.120;2022-07-29T16:07:41;29.70;69.10
16040;DHT22;8124;48.634;8.120;2022-07-29T16:12:44;29.90;69.10
16040;DHT22;8124;48.634;8.120;2022-07-29T16:17:47;29.90;68.80
16040;DHT22;8124;48.634;8.120;2022-07-29T16:22:52;29.90;68.50
16040;DHT22;8124;48.634;8.120;2022-07-29T16:27:55;29.80;68.00
16040;DHT22;8124;48.634;8.120;2022-07-29T16:33:00;29.90;67.90
16040;DHT22;8124;48.634;8.120;2022-07-29T16:38:10;30.00;67.60
16040;DHT22;8124;48.634;8.120;2022-07-29T16:43:13;29.90;67.20
16040;DHT22;8124;48.634;8.120;2022-07-29T16:48:16;29.70;66.70
16040;DHT22;8124;48.634;8.120;2022-07-29T16:53:20;29.70;66.60
16040;DHT22;8124;48.634;8.120;2022-07-29T16:58:30;29.90;66.80
16040;DHT22;8124;48.634;8.120;2022-07-29T17:03:33;29.90;66.70
16040;DHT22;8124;48.634;8.120;2022-07-29T17:08:37;30.00;66.60
16040;DHT22;8124;48.634;8.120;2022-07-29T17:13:41;30.10;66.50
16040;DHT22;8124;48.634;8.120;2022-07-29T17:18:44;30.30;66.50
16040;DHT22;8124;48.634;8.120;2022-07-29T17:23:48;30.00;65.90
16040;DHT22;8124;48.634;8.120;2022-07-29T17:28:51;29.80;65.30
16040;DHT22;8124;48.634;8.120;2022-07-29T17:33:54;29.50;64.60
16040;DHT22;8124;48.634;8.120;2022-07-29T17:39:04;29.70;64.60
16040;DHT22;8124;48.634;8.120;2022-07-29T17:44:07;30.00;64.90
16040;DHT22;8124;48.634;8.120;2022-07-29T17:49:10;30.00;64.60
16040;DHT22;8124;48.634;8.120;2022-07-29T17:54:14;29.90;64.30
16040;DHT22;8124;48.634;8.120;2022-07-29T17:59:17;29.90;64.10
16040;DHT22;8124;48.634;8.120;2022-07-29T18:04:21;30.20;64.40
16040;DHT22;8124;48.634;8.120;2022-07-29T18:09:25;30.20;64.20
16040;DHT22;8124;48.634;8.120;2022-07-29T18:14:29;30.30;64.20
16040;DHT22;8124;48.634;8.120;2022-07-29T18:19:32;30.10;63.90
16040;DHT22;8124;48.634;8.120;2022-07-29T18:24:37;30.10;63.90
16040;DHT22;8124;48.634;8.120;2022-07-29T18:29:40;29.90;63.50
16040;DHT22;8124;48.634;8.120;2022-07-29T18:34:43;30.00;63.70
16040;DHT22;8124;48.634;8.120;2022-07-29T18:39:48;29.80;63.40
16040;DHT22;8124;48.634;8.120;2022-07-29T18:44:51;29.50;63.10
16040;DHT22;8124;48.634;8.120;2022-07-29T18:49:55;29.20;63.00
16040;DHT22;8124;48.634;8.120;2022-07-29T18:55:02;29.00;62.90
16040;DHT22;8124;48.634;8.120;2022-07-29T19:00:06;28.70;62.90
16040;DHT22;8124;48.634;8.120;2022-07-29T19:05:13;28.80;63.30
16040;DHT22;8124;48.634;8.120;2022-07-29T19:10:22;28.70;63.50
16040;DHT22;8124;48.634;8.120;2022-07-29T19:15:25;28.80;64.00
16040;DHT22;8124;48.634;8.120;2022-07-29T19:20:31;28.60;64.20
16040;DHT22;8124;48.634;8.120;2022-07-29T19:25:36;28.60;64.40
16040;DHT22;8124;48.634;8.120;2022-07-29T19:30:54;28.40;64.50
16040;DHT22;8124;48.634;8.120;2022-07-29T19:35:57;28.10;64.40
16040;DHT22;8124;48.634;8.120;2022-07-29T19:41:02;28.10;64.80
16040;DHT22;8124;48.634;8.120;2022-07-29T19:46:07;28.00;64.80
16040;DHT22;8124;48.634;8.120;2022-07-29T19:51:11;27.80;64.80
16040;DHT22;8124;48.634;8.120;2022-07-29T19:56:16;28.00;65.20
16040;DHT22;8124;48.634;8.120;2022-07-29T20:01:27;27.50;64.60
16040;DHT22;8124;48.634;8.120;2022-07-29T20:06:31;27.60;64.80
16040;DHT22;8124;48.634;8.120;2022-07-29T20:11:35;27.50;64.70
16040;DHT22;8124;48.634;8.120;2022-07-29T20:16:40;27.30;64.50
16040;DHT22;8124;48.634;8.120;2022-07-29T20:21:43;27.20;64.40
16040;DHT22;8124;48.634;8.120;2022-07-29T20:26:48;27.20;64.40
16040;DHT22;8124;48.634;8.120;2022-07-29T20:31:51;27.20;64.40
16040;DHT22;8124;48.634;8.120;2022-07-29T20:36:57;27.30;64.60
16040;DHT22;8124;48.634;8.120;2022-07-29T20:42:03;27.10;64.30
16040;DHT22;8124;48.634;8.120;2022-07-29T20:47:10;27.10;64.30
16040;DHT22;8124;48.634;8.120;2022-07-29T20:52:21;27.00;65.00
16040;DHT22;8124;48.634;8.120;2022-07-29T20:57:26;27.00;64.20
16040;DHT22;8124;48.634;8.120;2022-07-29T21:02:40;26.60;64.10
16040;DHT22;8124;48.634;8.120;2022-07-29T21:07:44;26.90;65.40
16040;DHT22;8124;48.634;8.120;2022-07-29T21:12:48;26.70;66.70
16040;DHT22;8124;48.634;8.120;2022-07-29T21:17:51;26.80;67.80
16040;DHT22;8124;48.634;8.120;2022-07-29T21:23:01;26.90;68.80
16040;DHT22;8124;48.634;8.120;2022-07-29T21:28:05;26.90;69.00
16040;DHT22;8124;48.634;8.120;2022-07-29T21:33:34;26.50;68.70
16040;DHT22;8124;48.634;8.120;2022-07-29T21:38:38;26.40;68.90
16040;DHT22;8124;48.634;8.120;2022-07-29T21:43:42;26.50;69.10
16040;DHT22;8124;48.634;8.120;2022-07-29T21:48:46;26.50;69.40
16040;DHT22;8124;48.634;8.120;2022-07-29T21:53:49;26.60;69.80
16040;DHT22;8124;48.634;8.120;2022-07-29T21:58:55;26.20;69.30
16040;DHT22;8124;48.634;8.120;2022-07-29T22:03:58;26.10;69.50
16040;DHT22;8124;48.634;8.120;2022-07-29T22:09:01;26.10;69.70
16040;DHT22;8124;48.634;8.120;2022-07-29T22:14:05;26.00;69.80
16040;DHT22;8124;48.634;8.120;2022-07-29T22:19:08;25.80;70.20
16040;DHT22;8124;48.634;8.120;2022-07-29T22:24:11;26.10;71.00
16040;DHT22;8124;48.634;8.120;2022-07-29T22:29:16;26.10;72.10
16040;DHT22;8124;48.634;8.120;2022-07-29T22:34:19;26.00;73.10
16040;DHT22;8124;48.634;8.120;2022-07-29T22:39:23;25.60;73.00
16040;DHT22;8124;48.634;8.120;2022-07-29T22:44:27;25.70;73.90
16040;DHT22;8124;48.634;8.120;2022-07-29T22:49:30;25.60;74.40
16040;DHT22;8124;48.634;8.120;2022-07-29T22:54:33;25.70;75.20
16040;DHT22;8124;48.634;8.120;2022-07-29T22:59:38;25.40;76.10
16040;DHT22;8124;48.634;8.120;2022-07-29T23:05:06;25.40;77.50
16040;DHT22;8124;48.634;8.120;2022-07-29T23:10:10;25.20;78.60
16040;DHT22;8124;48.634;8.120;2022-07-29T23:15:15;25.10;80.00
16040;DHT22;8124;48.634;8.120;2022-07-29T23:20:19;24.90;81.80
16040;DHT22;8124;48.634;8.120;2022-07-29T23:25:23;24.90;83.50
16040;DHT22;8124;48.634;8.120;2022-07-29T23:30:28;25.00;84.70
16040;DHT22;8124;48.634;8.120;2022-07-29T23:35:31;24.90;85.50
16040;DHT22;8124;48.634;8.120;2022-07-29T23:40:34;24.90;86.90
16040;DHT22;8124;48.634;8.120;2022-07-29T23:45:39;24.80;87.50
16040;DHT22;8124;48.634;8.120;2022-07-29T23:50:49;24.70;88.20
16040;DHT22;8124;48.634;8.120;2022-07-29T23:55:52;24.50;89.80
